sensor_id;sensor_type;location;lat;lon;timestamp;P1;durP1;ratioP1;P2;durP2;ratioP2
14599;SDS011;7386;45.586;12.854;2023-07-09T00:00:13;9.10;;;7.78;;
14599;SDS011;7386;45.586;12.854;2023-07-09T00:02:42;10.10;;;8.15;;
14599;SDS011;7386;45.586;12.854;2023-07-09T00:05:11;10.88;;;7.97;;
14599;SDS011;7386;45.586;12.854;2023-07-09T00:07:40;10.55;;;8.20;;
14599;SDS011;7386;45.586;12.854;2023-07-09T00:10:15;12.18;;;8.63;;
14599;SDS011;7386;45.586;12.854;2023-07-09T00:12:45;9.80;;;8.00;;
14599;SDS011;7386;45.586;12.854;2023-07-09T00:15:14;11.05;;;8.32;;
14599;SDS011;7386;45.586;12.854;2023-07-09T00:17:44;9.45;;;7.88;;
14599;SDS011;7386;45.586;12.854;2023-07-09T00:20:14;10.60;;;8.45;;
14599;SDS011;7386;45.586;12.854;2023-07-09T00:22:44;11.45;;;9.05;;
14599;SDS011;7386;45.586;12.854;2023-07-09T00:25:16;12.68;;;9.02;;
14599;SDS011;7386;45.586;12.854;2023-07-09T00:27:44;12.50;;;9.25;;
14599;SDS011;7386;45.586;12.854;2023-07-09T00:30:15;10.30;;;8.57;;
14599;SDS011;7386;45.586;12.854;2023-07-09T00:32:44;11.18;;;9.25;;
14599;SDS011;7386;45.586;12.854;2023-07-09T00:35:13;11.90;;;9.30;;
14599;SDS011;7386;45.586;12.854;2023-07-09T00:37:43;11.50;;;9.52;;
14599;SDS011;7386;45.586;12.854;2023-07-09T00:40:14;10.70;;;9.07;;
14599;SDS011;7386;45.586;12.854;2023-07-09T00:42:47;11.73;;;9.05;;
14599;SDS011;7386;45.586;12.854;2023-07-09T00:45:19;10.52;;;8.55;;
14599;SDS011;7386;45.586;12.854;2023-07-09T00:47:49;11.05;;;8.57;;
14599;SDS011;7386;45.586;12.854;2023-07-09T00:50:21;11.75;;;9.02;;
14599;SDS011;7386;45.586;12.854;2023-07-09T00:52:55;12.93;;;10.15;;
14599;SDS011;7386;45.586;12.854;2023-07-09T00:55:25;12.02;;;9.48;;
14599;SDS011;7386;45.586;12.854;2023-07-09T00:57:58;13.23;;;10.30;;
14599;SDS011;7386;45.586;12.854;2023-07-09T01:00:30;12.57;;;10.30;;
14599;SDS011;7386;45.586;12.854;2023-07-09T01:03:04;14.63;;;10.60;;
14599;SDS011;7386;45.586;12.854;2023-07-09T01:05:33;13.02;;;10.27;;
14599;SDS011;7386;45.586;12.854;2023-07-09T01:08:02;15.02;;;11.50;;
14599;SDS011;7386;45.586;12.854;2023-07-09T01:10:31;13.98;;;11.50;;
14599;SDS011;7386;45.586;12.854;2023-07-09T01:13:01;12.95;;;10.48;;
14599;SDS011;7386;45.586;12.854;2023-07-09T01:15:29;12.00;;;9.68;;
14599;SDS011;7386;45.586;12.854;2023-07-09T01:18:00;12.23;;;9.40;;
14599;SDS011;7386;45.586;12.854;2023-07-09T01:20:29;13.50;;;9.82;;
14599;SDS011;7386;45.586;12.854;2023-07-09T01:23:01;11.60;;;9.00;;
14599;SDS011;7386;45.586;12.854;2023-07-09T01:25:29;12.70;;;9.20;;
14599;SDS011;7386;45.586;12.854;2023-07-09T01:27:58;11.85;;;8.90;;
14599;SDS011;7386;45.586;12.854;2023-07-09T01:30:29;12.20;;;9.40;;
14599;SDS011;7386;45.586;12.854;2023-07-09T01:32:59;11.20;;;9.32;;
14599;SDS011;7386;45.586;12.854;2023-07-09T01:35:29;11.15;;;9.95;;
14599;SDS011;7386;45.586;12.854;2023-07-09T01:38:00;13.13;;;10.23;;
14599;SDS011;7386;45.586;12.854;2023-07-09T01:40:30;11.70;;;9.30;;
14599;SDS011;7386;45.586;12.854;2023-07-09T01:43:02;11.18;;;8.93;;
14599;SDS011;7386;45.586;12.854;2023-07-09T01:45:33;10.43;;;8.80;;
14599;SDS011;7386;45.586;12.854;2023-07-09T01:48:02;11.95;;;9.50;;
14599;SDS011;7386;45.586;12.854;2023-07-09T01:50:31;12.15;;;10.05;;
14599;SDS011;7386;45.586;12.854;2023-07-09T01:53:01;11.85;;;9.10;;
14599;SDS011;7386;45.586;12.854;2023-07-09T01:55:29;10.77;;;9.07;;
14599;SDS011;7386;45.586;12.854;2023-07-09T01:57:58;12.35;;;9.20;;
14599;SDS011;7386;45.586;12.854;2023-07-09T02:00:26;10.95;;;8.88;;
14599;SDS011;7386;45.586;12.854;2023-07-09T02:02:55;11.48;;;9.20;;
14599;SDS011;7386;45.586;12.854;2023-07-09T02:05:24;11.13;;;9.35;;
14599;SDS011;7386;45.586;12.854;2023-07-09T02:07:53;11.40;;;8.95;;
14599;SDS011;7386;45.586;12.854;2023-07-09T02:10:23;10.57;;;8.93;;
14599;SDS011;7386;45.586;12.854;2023-07-09T02:12:51;11.52;;;9.07;;
14599;SDS011;7386;45.586;12.854;2023-07-09T02:15:20;11.75;;;9.38;;
14599;SDS011;7386;45.586;12.854;2023-07-09T02:17:49;11.68;;;9.50;;
14599;SDS011;7386;45.586;12.854;2023-07-09T02:20:18;11.02;;;9.40;;
14599;SDS011;7386;45.586;12.854;2023-07-09T02:22:49;12.60;;;9.30;;
14599;SDS011;7386;45.586;12.854;2023-07-09T02:25:18;10.15;;;8.82;;
14599;SDS011;7386;45.586;12.854;2023-07-09T02:27:48;10.65;;;8.93;;
14599;SDS011;7386;45.586;12.854;2023-07-09T02:30:17;11.23;;;9.05;;
14599;SDS011;7386;45.586;12.854;2023-07-09T02:32:46;11.27;;;9.13;;
14599;SDS011;7386;45.586;12.854;2023-07-09T02:35:14;9.75;;;8.32;;
14599;SDS011;7386;45.586;12.854;2023-07-09T02:37:43;11.23;;;8.60;;
14599;SDS011;7386;45.586;12.854;2023-07-09T02:40:12;11.10;;;8.23;;
14599;SDS011;7386;45.586;12.854;2023-07-09T02:42:41;11.25;;;8.98;;
14599;SDS011;7386;45.586;12.854;2023-07-09T02:45:11;12.38;;;9.30;;
14599;SDS011;7386;45.586;12.854;2023-07-09T02:47:40;11.27;;;9.20;;
14599;SDS011;7386;45.586;12.854;2023-07-09T02:50:09;11.88;;;9.20;;
14599;SDS011;7386;45.586;12.854;2023-07-09T02:52:38;12.88;;;10.38;;
14599;SDS011;7386;45.586;12.854;2023-07-09T02:55:08;11.82;;;9.85;;
14599;SDS011;7386;45.586;12.854;2023-07-09T02:57:37;11.88;;;10.10;;
14599;SDS011;7386;45.586;12.854;2023-07-09T03:00:06;12.35;;;9.57;;
14599;SDS011;7386;45.586;12.854;2023-07-09T03:02:36;11.82;;;9.70;;
14599;SDS011;7386;45.586;12.854;2023-07-09T03:05:05;12.88;;;10.02;;
14599;SDS011;7386;45.586;12.854;2023-07-09T03:07:36;12.15;;;9.63;;
14599;SDS011;7386;45.586;12.854;2023-07-09T03:10:04;12.68;;;9.70;;
14599;SDS011;7386;45.586;12.854;2023-07-09T03:12:33;12.70;;;9.43;;
14599;SDS011;7386;45.586;12.854;2023-07-09T03:15:02;11.77;;;9.10;;
14599;SDS011;7386;45.586;12.854;2023-07-09T03:17:30;12.00;;;9.00;;
14599;SDS011;7386;45.586;12.854;2023-07-09T03:20:00;11.95;;;10.00;;
14599;SDS011;7386;45.586;12.854;2023-07-09T03:22:29;11.48;;;9.60;;
14599;SDS011;7386;45.586;12.854;2023-07-09T03:24:57;13.95;;;10.75;;
14599;SDS011;7386;45.586;12.854;2023-07-09T03:27:26;13.70;;;11.25;;
14599;SDS011;7386;45.586;12.854;2023-07-09T03:29:55;14.45;;;11.80;;
14599;SDS011;7386;45.586;12.854;2023-07-09T03:32:23;16.50;;;14.15;;
14599;SDS011;7386;45.586;12.854;2023-07-09T03:34:52;17.23;;;14.75;;
14599;SDS011;7386;45.586;12.854;2023-07-09T03:37:22;17.02;;;14.07;;
14599;SDS011;7386;45.586;12.854;2023-07-09T03:39:50;17.10;;;14.13;;
14599;SDS011;7386;45.586;12.854;2023-07-09T03:42:19;16.30;;;13.02;;
14599;SDS011;7386;45.586;12.854;2023-07-09T03:44:47;15.60;;;12.77;;
14599;SDS011;7386;45.586;12.854;2023-07-09T03:47:16;18.13;;;13.85;;
14599;SDS011;7386;45.586;12.854;2023-07-09T03:49:45;14.88;;;12.40;;
14599;SDS011;7386;45.586;12.854;2023-07-09T03:52:13;15.88;;;13.60;;
14599;SDS011;7386;45.586;12.854;2023-07-09T03:54:44;15.30;;;12.93;;
14599;SDS011;7386;45.586;12.854;2023-07-09T03:57:12;17.92;;;14.27;;
14599;SDS011;7386;45.586;12.854;2023-07-09T03:59:41;17.85;;;15.00;;
14599;SDS011;7386;45.586;12.854;2023-07-09T04:02:09;16.90;;;13.43;;
14599;SDS011;7386;45.586;12.854;2023-07-09T04:04:38;17.75;;;14.27;;
14599;SDS011;7386;45.586;12.854;2023-07-09T04:07:07;16.20;;;12.27;;
14599;SDS011;7386;45.586;12.854;2023-07-09T04:09:35;14.98;;;12.43;;
14599;SDS011;7386;45.586;12.854;2023-07-09T04:12:06;15.00;;;11.75;;
14599;SDS011;7386;45.586;12.854;2023-07-09T04:14:34;16.50;;;13.00;;
14599;SDS011;7386;45.586;12.854;2023-07-09T04:17:03;15.73;;;12.95;;
14599;SDS011;7386;45.586;12.854;2023-07-09T04:19:32;16.63;;;12.65;;
14599;SDS011;7386;45.586;12.854;2023-07-09T04:22:01;17.27;;;13.20;;
14599;SDS011;7386;45.586;12.854;2023-07-09T04:24:30;14.57;;;10.98;;
14599;SDS011;7386;45.586;12.854;2023-07-09T04:26:59;12.93;;;10.57;;
14599;SDS011;7386;45.586;12.854;2023-07-09T04:29:31;11.70;;;9.73;;
14599;SDS011;7386;45.586;12.854;2023-07-09T04:32:00;11.93;;;9.95;;
14599;SDS011;7386;45.586;12.854;2023-07-09T04:34:29;14.07;;;10.88;;
14599;SDS011;7386;45.586;12.854;2023-07-09T04:36:57;13.80;;;9.60;;
14599;SDS011;7386;45.586;12.854;2023-07-09T04:39:26;11.32;;;9.43;;
14599;SDS011;7386;45.586;12.854;2023-07-09T04:41:55;12.60;;;10.13;;
14599;SDS011;7386;45.586;12.854;2023-07-09T04:44:23;12.57;;;10.20;;
14599;SDS011;7386;45.586;12.854;2023-07-09T04:46:53;10.60;;;8.93;;
14599;SDS011;7386;45.586;12.854;2023-07-09T04:49:22;10.85;;;8.40;;
14599;SDS011;7386;45.586;12.854;2023-07-09T04:51:50;11.10;;;8.48;;
14599;SDS011;7386;45.586;12.854;2023-07-09T04:54:19;12.60;;;9.23;;
14599;SDS011;7386;45.586;12.854;2023-07-09T04:56:48;9.05;;;7.97;;
14599;SDS011;7386;45.586;12.854;2023-07-09T04:59:17;10.63;;;9.02;;
14599;SDS011;7386;45.586;12.854;2023-07-09T05:01:46;9.27;;;7.93;;
14599;SDS011;7386;45.586;12.854;2023-07-09T05:04:16;11.95;;;8.85;;
14599;SDS011;7386;45.586;12.854;2023-07-09T05:06:47;12.52;;;9.48;;
14599;SDS011;7386;45.586;12.854;2023-07-09T05:09:16;10.77;;;8.13;;
14599;SDS011;7386;45.586;12.854;2023-07-09T05:11:44;10.40;;;7.93;;
14599;SDS011;7386;45.586;12.854;2023-07-09T05:14:13;10.82;;;8.57;;
14599;SDS011;7386;45.586;12.854;2023-07-09T05:16:42;9.45;;;7.82;;
14599;SDS011;7386;45.586;12.854;2023-07-09T05:19:11;10.57;;;7.88;;
14599;SDS011;7386;45.586;12.854;2023-07-09T05:21:41;12.40;;;7.80;;
14599;SDS011;7386;45.586;12.854;2023-07-09T05:24:10;8.80;;;7.30;;
14599;SDS011;7386;45.586;12.854;2023-07-09T05:26:39;9.40;;;6.32;;
14599;SDS011;7386;45.586;12.854;2023-07-09T05:29:07;7.85;;;6.93;;
14599;SDS011;7386;45.586;12.854;2023-07-09T05:31:36;8.07;;;6.65;;
14599;SDS011;7386;45.586;12.854;2023-07-09T05:34:04;9.93;;;7.50;;
14599;SDS011;7386;45.586;12.854;2023-07-09T05:36:33;9.98;;;7.50;;
14599;SDS011;7386;45.586;12.854;2023-07-09T05:39:03;9.23;;;6.60;;
14599;SDS011;7386;45.586;12.854;2023-07-09T05:41:32;8.73;;;6.78;;
14599;SDS011;7386;45.586;12.854;2023-07-09T05:44:00;7.43;;;6.68;;
14599;SDS011;7386;45.586;12.854;2023-07-09T05:46:33;12.32;;;7.07;;
14599;SDS011;7386;45.586;12.854;2023-07-09T05:49:03;8.73;;;6.57;;
14599;SDS011;7386;45.586;12.854;2023-07-09T05:51:31;8.05;;;6.63;;
14599;SDS011;7386;45.586;12.854;2023-07-09T05:54:00;8.32;;;6.05;;
14599;SDS011;7386;45.586;12.854;2023-07-09T05:56:30;8.50;;;6.32;;
14599;SDS011;7386;45.586;12.854;2023-07-09T05:58:58;9.02;;;6.63;;
14599;SDS011;7386;45.586;12.854;2023-07-09T06:01:27;8.30;;;6.72;;
14599;SDS011;7386;45.586;12.854;2023-07-09T06:03:56;9.98;;;6.00;;
14599;SDS011;7386;45.586;12.854;2023-07-09T06:06:25;7.95;;;6.18;;
14599;SDS011;7386;45.586;12.854;2023-07-09T06:08:53;9.13;;;6.13;;
14599;SDS011;7386;45.586;12.854;2023-07-09T06:11:22;6.75;;;5.70;;
14599;SDS011;7386;45.586;12.854;2023-07-09T06:13:52;7.72;;;6.20;;
14599;SDS011;7386;45.586;12.854;2023-07-09T06:16:21;10.18;;;6.00;;
14599;SDS011;7386;45.586;12.854;2023-07-09T06:18:49;7.45;;;5.57;;
14599;SDS011;7386;45.586;12.854;2023-07-09T06:21:18;8.98;;;6.32;;
14599;SDS011;7386;45.586;12.854;2023-07-09T06:23:46;8.00;;;6.20;;
14599;SDS011;7386;45.586;12.854;2023-07-09T06:26:15;7.75;;;5.97;;
14599;SDS011;7386;45.586;12.854;2023-07-09T06:28:43;7.85;;;6.10;;
14599;SDS011;7386;45.586;12.854;2023-07-09T06:31:13;7.88;;;5.78;;
14599;SDS011;7386;45.586;12.854;2023-07-09T06:33:42;8.75;;;6.00;;
14599;SDS011;7386;45.586;12.854;2023-07-09T06:36:10;6.97;;;5.85;;
14599;SDS011;7386;45.586;12.854;2023-07-09T06:38:39;7.22;;;5.80;;
14599;SDS011;7386;45.586;12.854;2023-07-09T06:41:07;7.57;;;4.75;;
14599;SDS011;7386;45.586;12.854;2023-07-09T06:43:36;3.50;;;3.20;;
14599;SDS011;7386;45.586;12.854;2023-07-09T06:46:05;4.28;;;3.70;;
14599;SDS011;7386;45.586;12.854;2023-07-09T06:48:38;2.70;;;2.50;;
14599;SDS011;7386;45.586;12.854;2023-07-09T06:51:07;3.85;;;2.78;;
14599;SDS011;7386;45.586;12.854;2023-07-09T06:53:35;2.80;;;2.50;;
14599;SDS011;7386;45.586;12.854;2023-07-09T06:56:04;2.78;;;2.58;;
14599;SDS011;7386;45.586;12.854;2023-07-09T06:58:33;3.60;;;3.20;;
14599;SDS011;7386;45.586;12.854;2023-07-09T07:01:02;3.30;;;2.85;;
14599;SDS011;7386;45.586;12.854;2023-07-09T07:03:31;3.33;;;2.65;;
14599;SDS011;7386;45.586;12.854;2023-07-09T07:06:02;3.67;;;2.80;;
14599;SDS011;7386;45.586;12.854;2023-07-09T07:08:32;3.63;;;2.70;;
14599;SDS011;7386;45.586;12.854;2023-07-09T07:11:01;2.70;;;2.50;;
14599;SDS011;7386;45.586;12.854;2023-07-09T07:13:32;3.38;;;2.95;;
14599;SDS011;7386;45.586;12.854;2023-07-09T07:16:01;4.20;;;2.83;;
14599;SDS011;7386;45.586;12.854;2023-07-09T07:18:31;3.22;;;2.78;;
14599;SDS011;7386;45.586;12.854;2023-07-09T07:20:59;3.08;;;2.78;;
14599;SDS011;7386;45.586;12.854;2023-07-09T07:23:30;3.40;;;2.97;;
14599;SDS011;7386;45.586;12.854;2023-07-09T07:25:58;3.05;;;2.58;;
14599;SDS011;7386;45.586;12.854;2023-07-09T07:28:28;3.30;;;2.85;;
14599;SDS011;7386;45.586;12.854;2023-07-09T07:31:00;3.40;;;3.05;;
14599;SDS011;7386;45.586;12.854;2023-07-09T07:33:28;3.47;;;3.00;;
14599;SDS011;7386;45.586;12.854;2023-07-09T07:35:57;4.00;;;2.63;;
14599;SDS011;7386;45.586;12.854;2023-07-09T07:38:47;3.03;;;2.72;;
14599;SDS011;7386;45.586;12.854;2023-07-09T07:41:15;4.40;;;3.08;;
14599;SDS011;7386;45.586;12.854;2023-07-09T07:43:44;3.03;;;2.72;;
14599;SDS011;7386;45.586;12.854;2023-07-09T07:46:12;7.15;;;4.57;;
14599;SDS011;7386;45.586;12.854;2023-07-09T07:48:41;8.10;;;5.15;;
14599;SDS011;7386;45.586;12.854;2023-07-09T07:51:09;6.25;;;5.57;;
14599;SDS011;7386;45.586;12.854;2023-07-09T07:53:39;6.88;;;5.32;;
14599;SDS011;7386;45.586;12.854;2023-07-09T07:56:09;7.82;;;5.63;;
14599;SDS011;7386;45.586;12.854;2023-07-09T07:58:38;6.28;;;5.68;;
14599;SDS011;7386;45.586;12.854;2023-07-09T08:01:06;8.80;;;7.38;;
14599;SDS011;7386;45.586;12.854;2023-07-09T08:03:35;10.07;;;6.82;;
14599;SDS011;7386;45.586;12.854;2023-07-09T08:06:03;8.82;;;6.63;;
14599;SDS011;7386;45.586;12.854;2023-07-09T08:08:33;6.20;;;5.38;;
14599;SDS011;7386;45.586;12.854;2023-07-09T08:11:02;4.95;;;4.20;;
14599;SDS011;7386;45.586;12.854;2023-07-09T08:13:33;6.55;;;5.38;;
14599;SDS011;7386;45.586;12.854;2023-07-09T08:16:03;8.38;;;6.55;;
14599;SDS011;7386;45.586;12.854;2023-07-09T08:18:32;8.48;;;6.47;;
14599;SDS011;7386;45.586;12.854;2023-07-09T08:21:01;12.35;;;6.25;;
14599;SDS011;7386;45.586;12.854;2023-07-09T08:23:30;8.82;;;6.53;;
14599;SDS011;7386;45.586;12.854;2023-07-09T08:25:59;11.27;;;7.47;;
14599;SDS011;7386;45.586;12.854;2023-07-09T08:28:30;11.90;;;7.53;;
14599;SDS011;7386;45.586;12.854;2023-07-09T08:31:00;10.88;;;7.43;;
14599;SDS011;7386;45.586;12.854;2023-07-09T08:33:30;12.75;;;7.60;;
14599;SDS011;7386;45.586;12.854;2023-07-09T08:35:59;12.90;;;7.13;;
14599;SDS011;7386;45.586;12.854;2023-07-09T08:38:27;12.30;;;6.47;;
14599;SDS011;7386;45.586;12.854;2023-07-09T08:40:57;15.88;;;8.05;;
14599;SDS011;7386;45.586;12.854;2023-07-09T08:43:34;11.88;;;7.20;;
14599;SDS011;7386;45.586;12.854;2023-07-09T08:46:10;9.55;;;6.32;;
14599;SDS011;7386;45.586;12.854;2023-07-09T08:48:43;9.65;;;6.07;;
14599;SDS011;7386;45.586;12.854;2023-07-09T08:51:18;9.77;;;6.30;;
14599;SDS011;7386;45.586;12.854;2023-07-09T08:53:49;9.70;;;6.30;;
14599;SDS011;7386;45.586;12.854;2023-07-09T08:56:18;8.48;;;6.20;;
14599;SDS011;7386;45.586;12.854;2023-07-09T08:58:48;10.85;;;6.32;;
14599;SDS011;7386;45.586;12.854;2023-07-09T09:01:19;10.45;;;6.20;;
14599;SDS011;7386;45.586;12.854;2023-07-09T09:03:49;10.68;;;6.35;;
14599;SDS011;7386;45.586;12.854;2023-07-09T09:06:19;9.10;;;6.45;;
14599;SDS011;7386;45.586;12.854;2023-07-09T09:08:53;8.05;;;4.95;;
14599;SDS011;7386;45.586;12.854;2023-07-09T09:11:25;6.40;;;5.30;;
14599;SDS011;7386;45.586;12.854;2023-07-09T09:13:59;8.05;;;5.97;;
14599;SDS011;7386;45.586;12.854;2023-07-09T09:16:32;8.27;;;5.53;;
14599;SDS011;7386;45.586;12.854;2023-07-09T09:19:02;8.38;;;5.30;;
14599;SDS011;7386;45.586;12.854;2023-07-09T09:21:32;7.25;;;5.50;;
14599;SDS011;7386;45.586;12.854;2023-07-09T09:24:09;9.88;;;5.72;;
14599;SDS011;7386;45.586;12.854;2023-07-09T09:26:41;8.15;;;5.60;;
14599;SDS011;7386;45.586;12.854;2023-07-09T09:29:11;11.95;;;5.85;;
14599;SDS011;7386;45.586;12.854;2023-07-09T09:31:41;9.13;;;5.68;;
14599;SDS011;7386;45.586;12.854;2023-07-09T09:34:18;9.35;;;6.40;;
14599;SDS011;7386;45.586;12.854;2023-07-09T09:36:47;8.80;;;6.18;;
14599;SDS011;7386;45.586;12.854;2023-07-09T09:39:16;8.38;;;6.43;;
14599;SDS011;7386;45.586;12.854;2023-07-09T09:41:45;7.97;;;6.00;;
14599;SDS011;7386;45.586;12.854;2023-07-09T09:44:18;8.45;;;5.90;;
14599;SDS011;7386;45.586;12.854;2023-07-09T09:46:49;9.98;;;6.00;;
14599;SDS011;7386;45.586;12.854;2023-07-09T09:49:17;10.38;;;5.65;;
14599;SDS011;7386;45.586;12.854;2023-07-09T09:51:46;9.82;;;5.93;;
14599;SDS011;7386;45.586;12.854;2023-07-09T09:54:17;7.65;;;5.05;;
14599;SDS011;7386;45.586;12.854;2023-07-09T09:56:47;7.07;;;5.30;;
14599;SDS011;7386;45.586;12.854;2023-07-09T09:59:18;6.88;;;5.28;;
14599;SDS011;7386;45.586;12.854;2023-07-09T10:01:55;7.05;;;5.55;;
14599;SDS011;7386;45.586;12.854;2023-07-09T10:04:24;9.52;;;7.13;;
14599;SDS011;7386;45.586;12.854;2023-07-09T10:06:54;9.88;;;6.50;;
14599;SDS011;7386;45.586;12.854;2023-07-09T10:09:26;8.30;;;6.18;;
14599;SDS011;7386;45.586;12.854;2023-07-09T10:11:57;6.82;;;4.85;;
14599;SDS011;7386;45.586;12.854;2023-07-09T10:14:30;6.45;;;5.40;;
14599;SDS011;7386;45.586;12.854;2023-07-09T10:17:03;6.75;;;5.40;;
14599;SDS011;7386;45.586;12.854;2023-07-09T10:19:35;7.38;;;5.43;;
14599;SDS011;7386;45.586;12.854;2023-07-09T10:22:10;8.23;;;5.75;;
14599;SDS011;7386;45.586;12.854;2023-07-09T10:24:43;5.85;;;4.72;;
14599;SDS011;7386;45.586;12.854;2023-07-09T10:27:16;7.00;;;4.97;;
14599;SDS011;7386;45.586;12.854;2023-07-09T10:29:56;7.00;;;5.30;;
14599;SDS011;7386;45.586;12.854;2023-07-09T10:32:52;8.98;;;5.72;;
14599;SDS011;7386;45.586;12.854;2023-07-09T10:35:25;7.32;;;5.90;;
14599;SDS011;7386;45.586;12.854;2023-07-09T10:38:02;8.48;;;5.82;;
14599;SDS011;7386;45.586;12.854;2023-07-09T10:40:34;8.85;;;5.50;;
14599;SDS011;7386;45.586;12.854;2023-07-09T10:43:05;7.47;;;5.95;;
14599;SDS011;7386;45.586;12.854;2023-07-09T10:45:38;7.18;;;5.40;;
14599;SDS011;7386;45.586;12.854;2023-07-09T10:48:10;6.05;;;4.90;;
14599;SDS011;7386;45.586;12.854;2023-07-09T10:50:42;5.85;;;4.70;;
14599;SDS011;7386;45.586;12.854;2023-07-09T10:53:12;5.40;;;4.70;;
14599;SDS011;7386;45.586;12.854;2023-07-09T10:55:43;5.15;;;4.28;;
14599;SDS011;7386;45.586;12.854;2023-07-09T10:58:19;6.55;;;4.65;;
14599;SDS011;7386;45.586;12.854;2023-07-09T11:00:49;6.05;;;4.63;;
14599;SDS011;7386;45.586;12.854;2023-07-09T11:03:21;5.75;;;4.40;;
14599;SDS011;7386;45.586;12.854;2023-07-09T11:05:51;5.60;;;4.10;;
14599;SDS011;7386;45.586;12.854;2023-07-09T11:08:20;4.93;;;3.72;;
14599;SDS011;7386;45.586;12.854;2023-07-09T11:10:50;6.00;;;4.28;;
14599;SDS011;7386;45.586;12.854;2023-07-09T11:13:21;4.93;;;4.22;;
14599;SDS011;7386;45.586;12.854;2023-07-09T11:16:12;4.90;;;3.80;;
14599;SDS011;7386;45.586;12.854;2023-07-09T11:18:51;5.10;;;4.25;;
14599;SDS011;7386;45.586;12.854;2023-07-09T11:21:20;5.13;;;3.97;;
14599;SDS011;7386;45.586;12.854;2023-07-09T11:23:50;6.35;;;4.20;;
14599;SDS011;7386;45.586;12.854;2023-07-09T11:26:24;4.55;;;3.80;;
14599;SDS011;7386;45.586;12.854;2023-07-09T11:28:53;7.03;;;3.95;;
14599;SDS011;7386;45.586;12.854;2023-07-09T11:31:23;6.05;;;4.53;;
14599;SDS011;7386;45.586;12.854;2023-07-09T11:34:02;4.47;;;3.70;;
14599;SDS011;7386;45.586;12.854;2023-07-09T11:36:31;5.45;;;4.22;;
14599;SDS011;7386;45.586;12.854;2023-07-09T11:38:59;4.70;;;3.78;;
14599;SDS011;7386;45.586;12.854;2023-07-09T11:41:34;4.93;;;3.78;;
14599;SDS011;7386;45.586;12.854;2023-07-09T11:44:16;4.57;;;3.88;;
14599;SDS011;7386;45.586;12.854;2023-07-09T11:49:31;4.80;;;3.72;;
14599;SDS011;7386;45.586;12.854;2023-07-09T11:52:02;5.85;;;3.78;;
14599;SDS011;7386;45.586;12.854;2023-07-09T11:54:36;5.10;;;4.00;;
14599;SDS011;7386;45.586;12.854;2023-07-09T11:57:09;5.32;;;3.60;;
14599;SDS011;7386;45.586;12.854;2023-07-09T11:59:38;5.40;;;4.00;;
14599;SDS011;7386;45.586;12.854;2023-07-09T12:02:09;6.20;;;3.78;;
14599;SDS011;7386;45.586;12.854;2023-07-09T12:04:43;4.60;;;3.72;;
14599;SDS011;7386;45.586;12.854;2023-07-09T12:07:12;5.93;;;4.13;;
14599;SDS011;7386;45.586;12.854;2023-07-09T12:09:49;4.53;;;3.70;;
14599;SDS011;7386;45.586;12.854;2023-07-09T12:12:20;4.32;;;3.70;;
14599;SDS011;7386;45.586;12.854;2023-07-09T12:14:49;5.18;;;3.75;;
14599;SDS011;7386;45.586;12.854;2023-07-09T12:17:18;4.40;;;3.70;;
14599;SDS011;7386;45.586;12.854;2023-07-09T12:19:50;6.28;;;3.63;;
14599;SDS011;7386;45.586;12.854;2023-07-09T12:22:19;4.38;;;3.65;;
14599;SDS011;7386;45.586;12.854;2023-07-09T12:24:49;4.38;;;3.63;;
14599;SDS011;7386;45.586;12.854;2023-07-09T12:27:19;5.47;;;3.30;;
14599;SDS011;7386;45.586;12.854;2023-07-09T12:29:50;5.28;;;4.30;;
14599;SDS011;7386;45.586;12.854;2023-07-09T12:32:18;8.05;;;5.28;;
14599;SDS011;7386;45.586;12.854;2023-07-09T12:34:54;5.65;;;4.38;;
14599;SDS011;7386;45.586;12.854;2023-07-09T12:37:24;5.80;;;4.30;;
14599;SDS011;7386;45.586;12.854;2023-07-09T12:39:53;7.38;;;4.07;;
14599;SDS011;7386;45.586;12.854;2023-07-09T12:42:23;5.75;;;3.50;;
14599;SDS011;7386;45.586;12.854;2023-07-09T12:44:53;3.47;;;3.15;;
14599;SDS011;7386;45.586;12.854;2023-07-09T12:47:21;4.40;;;3.53;;
14599;SDS011;7386;45.586;12.854;2023-07-09T12:49:59;5.50;;;3.88;;
14599;SDS011;7386;45.586;12.854;2023-07-09T12:52:28;4.53;;;3.63;;
14599;SDS011;7386;45.586;12.854;2023-07-09T12:54:57;5.18;;;3.75;;
14599;SDS011;7386;45.586;12.854;2023-07-09T12:57:26;3.75;;;3.30;;
14599;SDS011;7386;45.586;12.854;2023-07-09T12:59:55;3.55;;;3.25;;
14599;SDS011;7386;45.586;12.854;2023-07-09T13:02:24;3.92;;;3.53;;
14599;SDS011;7386;45.586;12.854;2023-07-09T13:04:59;5.25;;;3.72;;
14599;SDS011;7386;45.586;12.854;2023-07-09T13:07:30;4.88;;;3.47;;
14599;SDS011;7386;45.586;12.854;2023-07-09T13:10:05;5.38;;;3.70;;
14599;SDS011;7386;45.586;12.854;2023-07-09T13:12:38;4.30;;;3.58;;
14599;SDS011;7386;45.586;12.854;2023-07-09T13:15:19;4.72;;;3.83;;
14599;SDS011;7386;45.586;12.854;2023-07-09T13:17:47;8.98;;;6.53;;
14599;SDS011;7386;45.586;12.854;2023-07-09T13:20:17;11.25;;;5.20;;
14599;SDS011;7386;45.586;12.854;2023-07-09T13:22:46;4.95;;;4.32;;
14599;SDS011;7386;45.586;12.854;2023-07-09T13:25:15;6.15;;;4.47;;
14599;SDS011;7386;45.586;12.854;2023-07-09T13:27:43;5.30;;;4.15;;
14599;SDS011;7386;45.586;12.854;2023-07-09T13:30:12;6.53;;;4.45;;
14599;SDS011;7386;45.586;12.854;2023-07-09T13:32:41;7.70;;;4.35;;
14599;SDS011;7386;45.586;12.854;2023-07-09T13:35:12;5.60;;;4.18;;
14599;SDS011;7386;45.586;12.854;2023-07-09T13:37:44;5.07;;;3.67;;
14599;SDS011;7386;45.586;12.854;2023-07-09T13:40:13;9.00;;;4.20;;
14599;SDS011;7386;45.586;12.854;2023-07-09T13:42:43;5.68;;;4.45;;
14599;SDS011;7386;45.586;12.854;2023-07-09T13:45:19;4.88;;;3.92;;
14599;SDS011;7386;45.586;12.854;2023-07-09T13:47:48;4.53;;;3.97;;
14599;SDS011;7386;45.586;12.854;2023-07-09T13:50:18;8.93;;;4.10;;
14599;SDS011;7386;45.586;12.854;2023-07-09T13:52:48;4.70;;;3.78;;
14599;SDS011;7386;45.586;12.854;2023-07-09T13:55:17;5.93;;;3.90;;
14599;SDS011;7386;45.586;12.854;2023-07-09T13:57:47;5.47;;;4.35;;
14599;SDS011;7386;45.586;12.854;2023-07-09T14:00:15;5.95;;;4.28;;
14599;SDS011;7386;45.586;12.854;2023-07-09T14:02:44;5.43;;;3.65;;
14599;SDS011;7386;45.586;12.854;2023-07-09T14:05:13;5.38;;;3.90;;
14599;SDS011;7386;45.586;12.854;2023-07-09T14:07:42;5.90;;;4.10;;
14599;SDS011;7386;45.586;12.854;2023-07-09T14:10:13;4.35;;;3.50;;
14599;SDS011;7386;45.586;12.854;2023-07-09T14:12:44;5.13;;;3.80;;
14599;SDS011;7386;45.586;12.854;2023-07-09T14:15:14;5.05;;;3.97;;
14599;SDS011;7386;45.586;12.854;2023-07-09T14:17:44;4.07;;;3.30;;
14599;SDS011;7386;45.586;12.854;2023-07-09T14:20:14;5.53;;;3.63;;
14599;SDS011;7386;45.586;12.854;2023-07-09T14:22:43;5.30;;;3.75;;
14599;SDS011;7386;45.586;12.854;2023-07-09T14:25:19;4.38;;;3.47;;
14599;SDS011;7386;45.586;12.854;2023-07-09T14:27:48;5.53;;;3.53;;
14599;SDS011;7386;45.586;12.854;2023-07-09T14:30:18;4.30;;;3.50;;
14599;SDS011;7386;45.586;12.854;2023-07-09T14:32:47;4.60;;;3.47;;
14599;SDS011;7386;45.586;12.854;2023-07-09T14:35:19;5.82;;;3.55;;
14599;SDS011;7386;45.586;12.854;2023-07-09T14:37:48;5.18;;;4.10;;
14599;SDS011;7386;45.586;12.854;2023-07-09T14:40:19;3.90;;;3.50;;
14599;SDS011;7386;45.586;12.854;2023-07-09T14:42:48;4.65;;;3.55;;
14599;SDS011;7386;45.586;12.854;2023-07-09T14:45:18;7.55;;;3.63;;
14599;SDS011;7386;45.586;12.854;2023-07-09T14:47:47;4.75;;;3.80;;
14599;SDS011;7386;45.586;12.854;2023-07-09T14:50:16;4.68;;;3.50;;
14599;SDS011;7386;45.586;12.854;2023-07-09T14:52:45;4.05;;;3.40;;
14599;SDS011;7386;45.586;12.854;2023-07-09T14:55:14;6.53;;;4.10;;
14599;SDS011;7386;45.586;12.854;2023-07-09T14:57:45;8.65;;;4.85;;
14599;SDS011;7386;45.586;12.854;2023-07-09T15:00:14;6.90;;;5.35;;